Brighton, MI

11:26 AM EST on December 22, 2014 (GMT -0500)
Ann Arbor Municipal | Change Station
CLOSE
Current Station
Airport
Location: Ann Arbor,
Elevation: 837 ft
Nearby Weather Stations

Elev 837 ft 42.22 °N, 83.74 °W | Updated 33 minutes ago

Clear
Clear
34 °F
Feels Like 27 °F
N
9
Wind Variable Wind from ESE

Today
High -- | Low -- °F
--% Chance of Precip.
Yesterday
High -- | Low -- °F
Precip. -- in
8:01 AM 5:05 PM
New Moon, 1% visible
Pressure 30.09 in
Visibility 7.0 miles
Clouds Clear
Windchill 27 °F
Dew Point 28 °F
Humidity 79%
Rainfall 0.00 in
Snow Depth Not available.
UV 2 out of 12
Pollen .10 out of 12
Air Quality Not available.
Flu Activity Not available.
METAR KARB 221553Z 11008KT 7SM CLR 01/M02 A3006 RMK AO2 SLP189 T00111022

More Conditions Fewer Conditions

Pressure 30.09 in
Visibility 7.0 miles
Clouds Clear
Windchill 27 °F
Dew Point 28 °F
Humidity 79%
Rainfall 0.00 in
Snow Depth Not available.
UV 2 out of 12
Pollen .10 out of 12
Air Quality Not available.
Flu Activity Not available.
METAR KARB 221553Z 11008KT 7SM CLR 01/M02 A3006 RMK AO2 SLP189 T00111022

More Conditions Fewer Conditions

10-Day Weather Forecast

Almanac

Astronomy

Dec. 22, 2014 Rise Set
Actual Time
Civil Twilight
Nautical Twilight
Astronomical Twilight
Moon
Length of Visible Light
Length of Day
Tomorrow will be .
, % of the Moon is Illuminated

Today's Extremes

State Highs State Lows

Community

WunderPhotos

Upload Photos

1,779,632 photos uploaded!

WunderBlogs® & News

Nearby

Air Quality

  Air Quality AQ Index Pollutant
Not available.

Snow Depth

Station Depth Elevation

Earthquake Activity

City Distance Mag. Time & Date
Minimum magnitude displayed is 2.5.

Coastal Water Temperatures

Place Temperature

Nearby Weather Stations